• Join FlightAware (Why Join?)
  • Login
  • US Flag 
04:15AM EDT


 

Airport Tracker/Info


-or-


 

Live Flight TrackerFlight Track Log ✈ SWA542 ✈ 12-Apr-2013 ✈ KMDW - KCMH

Flight Track Log - Related Links

Times and Time Zones

All times are in EDT time to prevent confusion due to time zone crossing. See the SWA542 flight status page for this flight to view local times or setup timezone preferences in your user account.

Time Position Orientation Groundspeed Altitude Reporting Facility
EDT Latitude Longitude Course Direction KTS MPH feet Rate Location/Type
11:05PM 41.8000 -87.7500 90° East 167 192 2,700  Level Chicago TRACON
11:06PM 41.8000 -87.6833 90° East 227 261 3,300 1,800 Climbing Chicago TRACON
11:07PM 41.7981 -87.6089 92° East 232 267 6,200 3,360 Climbing Chicago Center
11:08PM 41.7897 -87.4769 95° East 296 341 10,200 3,240 Climbing Chicago Center
11:09PM 41.7808 -87.3486 95° East 356 410 12,800 3,120 Climbing Chicago Center
11:10PM 41.7706 -87.2003 95° East 398 458 16,600 3,000 Climbing Chicago Center
11:11PM 41.7500 -86.9582 90° East  Level FlightAware Approximate
11:11PM 41.7606 -87.0414 95° East 430 495 19,000  Level Chicago Center
11:12PM 41.7636 -86.8761 89° East 445 512 21,500 2,640 Climbing Chicago Center
11:13PM 41.7644 -86.7022 90° East 469 540 24,400 2,760 Climbing Chicago Center
11:14PM 41.7678 -86.5239 89° East 487 560 27,200 2,220 Climbing Chicago Center
11:15PM 41.7394 -86.3481 102° East 497 572 29,000 840 Climbing Chicago Center
11:16PM 41.6494 -86.2111 131° Southeast 493 567 29,000  Level Chicago Center
11:17PM 41.5600 -86.0731 131° Southeast 495 570 29,000  Level Chicago Center
11:18PM 41.4711 -85.9381 131° Southeast 492 566 29,000  Level Chicago Center
11:19PM 41.3653 -85.7739 131° Southeast 493 567 29,000  Level Chicago Center
11:20PM 41.2764 -85.6397 131° Southeast 491 565 29,000  Level Chicago Center
11:21PM 41.1881 -85.5042 131° Southeast 492 566 29,000  Level Chicago Center
11:23PM 41.0989 -85.3706 132° Southeast 489 563 29,000  Level Chicago Center
11:24PM 41.0094 -85.2369 132° Southeast 489 563 29,000 -360 Level Chicago Center
11:25PM 40.9433 -85.0769 119° Southeast 503 579 28,300 -1,020 Descending Chicago Center
11:26PM 40.8936 -84.9153 112° Southeast 486 559 27,000 -1,680 Descending Chicago Center
11:27PM 40.8444 -84.7564 112° Southeast 473 544 25,000 -1,020 Descending Chicago Center
11:28PM 40.7961 -84.6003 112° Southeast 466 536 25,000 -180 Level Chicago Center
11:29PM 40.7350 -84.4047 112° Southeast 480 552 24,700 -660 Descending Chicago Center
11:29PM 40.7008 -84.2819 110° East 483 556 23,900 -960 Descending Indianapolis Center
11:30PM 40.6489 -84.1189 113° Southeast 478 550 23,000 -660 Descending Indianapolis Center
11:31PM 40.5972 -83.9586 113° Southeast 471 542 22,600 -1,080 Descending Indianapolis Center
11:32PM 40.5464 -83.8014 113° Southeast 439 505 20,900 -2,100 Descending Indianapolis Center
11:33PM 40.5006 -83.6583 113° Southeast 425 489 18,500 -2,400 Descending Indianapolis Center
11:34PM 40.4561 -83.5214 113° Southeast 410 472 16,100 -2,340 Descending Indianapolis Center
11:35PM 40.4122 -83.4008 116° Southeast 392 451 14,000 -2,400 Descending Indianapolis Center
11:36PM 40.3489 -83.2919 127° Southeast 372 428 11,500 -2,040 Descending Indianapolis Center
11:37PM 40.2847 -83.1911 130° Southeast 361 415 10,000 -1,020 Descending Indianapolis Center
11:39PM 40.2208 -83.0858 128° Southeast 337 388 9,400 -1,020 Descending Indianapolis Center
11:39PM 40.1697 -83.0083 131° Southeast 304 350 8,000 -1,800 Descending Indianapolis Center
11:40PM 40.1164 -82.9286 131° Southeast 290 334 6,100 -1,320 Descending Indianapolis Center
11:41PM 40.0911 -82.8358 110° East 245 282 5,300 -960 Descending Indianapolis Center
11:42PM 40.0797 -82.7583 101° East 234 269 4,200 -1,380 Descending Indianapolis Center
11:43PM 40.0275 -82.7550 177° South 175 201 2,700 -840 Descending Indianapolis Center
11:44PM 39.9892 -82.7644 191° South 127 146 2,600 -420 Descending Indianapolis Center
11:45PM 39.9903 -82.8108 272° West 121 139 1,900 -720 Descending Indianapolis Center
11:46PM 39.9917 -82.8544 272° West 121 139 1,200 -720 Descending Indianapolis Center